Terminal Aerodrome Forecast
Issued by NWS

Home | Current Version | Previous Version | Text Only | Print | Product List | Glossary Off
Versions: 1 2 3 4 5 6 7 8 9 10 11 12 13 14 15 16 17 18 19 20 21 22 23 24 25 26 27

000
FTUS45 KGGW 061700
TAFGDV
TAF
KGDV 061728Z 0618/0718 32012KT 6SM -SHRA OVC015
     FM062100 33020G28KT 6SM -SHRA OVC015
     FM070600 34015KT P6SM VCSH OVC025
     FM071200 33017G25KT P6SM BKN024
      AMD LTD TO CLD VIS AND WIND=

USA.gov is the U.S. government's official web portal to all federal, state and local government web resources and services.